Bethlehem, West Virginia
Current Conditions -  °F | °C
As of 6:53 PM on Sunday 23 Nov 2014 (Local Time) from KHLG Reporting Station
Few Clouds Few Clouds  
Wind Chill: 60°   Ceiling: Unl
Heat Index: 60°   Visibility: 10mi
Dew Point: 40°   Wind: 16mph
Humidity: 47%   Direction: 140°SE
Pressure: 29.71"   Gusts: 23mph
Location:  40.0729°N, 80.6524°W
Report Text: KHLG 232353Z 14014G20KT 10SM FEW120 16/04 A2971 RMK AO2 SLP062 T01560044 10183 20156 58038
Loading
Personal Weather Stations






























Interactive Weather Map New forecast layout! Learn more

10-Day Weather Forecast

Advertisements
Track Severe Weather on mobile